sensor_id;sensor_type;location;lat;lon;timestamp;pressure;altitude;pressure_sealevel;temperature;humidity
22311;BME280;11323;49.610;11.016;2023-02-12T00:04:27;100067.84;;;10.87;nan
22311;BME280;11323;49.610;11.016;2023-02-12T00:09:27;100055.91;;;10.83;nan
22311;BME280;11323;49.610;11.016;2023-02-12T00:14:28;100060.19;;;10.84;nan
22311;BME280;11323;49.610;11.016;2023-02-12T00:19:29;100059.47;;;10.82;nan
22311;BME280;11323;49.610;11.016;2023-02-12T00:24:29;100052.78;;;10.78;nan
22311;BME280;11323;49.610;11.016;2023-02-12T00:29:30;100063.41;;;10.75;nan
22311;BME280;11323;49.610;11.016;2023-02-12T00:34:30;100069.44;;;10.75;nan
22311;BME280;11323;49.610;11.016;2023-02-12T00:39:31;100080.72;;;10.76;nan
22311;BME280;11323;49.610;11.016;2023-02-12T00:44:31;100089.38;;;10.76;nan
22311;BME280;11323;49.610;11.016;2023-02-12T00:49:31;100073.28;;;10.70;nan
22311;BME280;11323;49.610;11.016;2023-02-12T00:54:35;100076.84;;;10.69;nan
22311;BME280;11323;49.610;11.016;2023-02-12T00:59:36;100089.66;;;10.72;nan
22311;BME280;11323;49.610;11.016;2023-02-12T01:04:39;100082.25;;;10.65;nan
22311;BME280;11323;49.610;11.016;2023-02-12T01:09:39;100091.53;;;10.70;nan
22311;BME280;11323;49.610;11.016;2023-02-12T01:14:39;100079.94;;;10.61;nan
22311;BME280;11323;49.610;11.016;2023-02-12T01:19:41;100069.41;;;10.62;nan
22311;BME280;11323;49.610;11.016;2023-02-12T01:24:41;100058.97;;;10.62;nan
22311;BME280;11323;49.610;11.016;2023-02-12T01:29:42;100080.69;;;10.63;nan
22311;BME280;11323;49.610;11.016;2023-02-12T01:34:43;100079.66;;;10.65;nan
22311;BME280;11323;49.610;11.016;2023-02-12T01:39:44;100077.09;;;10.64;nan
22311;BME280;11323;49.610;11.016;2023-02-12T01:50:16;100057.41;;;10.60;nan
22311;BME280;11323;49.610;11.016;2023-02-12T01:55:18;100061.88;;;10.58;nan
22311;BME280;11323;49.610;11.016;2023-02-12T02:00:22;100067.09;;;10.58;nan
22311;BME280;11323;49.610;11.016;2023-02-12T02:05:30;100074.63;;;10.62;nan
22311;BME280;11323;49.610;11.016;2023-02-12T02:10:34;100063.44;;;10.60;nan
22311;BME280;11323;49.610;11.016;2023-02-12T02:15:35;100058.03;;;10.63;nan
22311;BME280;11323;49.610;11.016;2023-02-12T02:31:42;100060.84;;;10.60;nan
22311;BME280;11323;49.610;11.016;2023-02-12T02:36:59;100064.19;;;10.62;nan
22311;BME280;11323;49.610;11.016;2023-02-12T02:47:10;100071.06;;;10.63;nan
22311;BME280;11323;49.610;11.016;2023-02-12T02:52:23;100063.72;;;10.56;nan
22311;BME280;11323;49.610;11.016;2023-02-12T02:57:35;100067.19;;;10.56;nan
22311;BME280;11323;49.610;11.016;2023-02-12T03:02:39;100073.78;;;10.62;nan
22311;BME280;11323;49.610;11.016;2023-02-12T03:08:28;100074.63;;;10.62;nan
22311;BME280;11323;49.610;11.016;2023-02-12T03:14:07;100059.66;;;10.52;nan
22311;BME280;11323;49.610;11.016;2023-02-12T03:19:17;100081.69;;;10.60;nan
22311;BME280;11323;49.610;11.016;2023-02-12T03:24:24;100088.78;;;10.58;nan
22311;BME280;11323;49.610;11.016;2023-02-12T03:29:25;100088.22;;;10.53;nan
22311;BME280;11323;49.610;11.016;2023-02-12T03:34:39;100092.34;;;10.57;nan
22311;BME280;11323;49.610;11.016;2023-02-12T03:46:10;100102.56;;;10.60;nan
22311;BME280;11323;49.610;11.016;2023-02-12T03:56:46;100100.34;;;10.54;nan
22311;BME280;11323;49.610;11.016;2023-02-12T04:01:53;100102.31;;;10.50;nan
22311;BME280;11323;49.610;11.016;2023-02-12T04:06:54;100115.59;;;10.60;nan
22311;BME280;11323;49.610;11.016;2023-02-12T04:17:31;100115.41;;;10.49;nan
22311;BME280;11323;49.610;11.016;2023-02-12T04:27:59;100121.94;;;10.56;nan
22311;BME280;11323;49.610;11.016;2023-02-12T04:33:05;100120.25;;;10.55;nan
22311;BME280;11323;49.610;11.016;2023-02-12T04:38:29;100116.09;;;10.53;nan
22311;BME280;11323;49.610;11.016;2023-02-12T04:43:34;100116.28;;;10.49;nan
22311;BME280;11323;49.610;11.016;2023-02-12T04:48:57;100124.84;;;10.52;nan
22311;BME280;11323;49.610;11.016;2023-02-12T04:53:57;100126.53;;;10.53;nan
22311;BME280;11323;49.610;11.016;2023-02-12T04:58:57;100120.63;;;10.49;nan
22311;BME280;11323;49.610;11.016;2023-02-12T05:03:58;100130.88;;;10.52;nan
22311;BME280;11323;49.610;11.016;2023-02-12T05:08:58;100138.59;;;10.54;nan
22311;BME280;11323;49.610;11.016;2023-02-12T05:13:59;100131.44;;;10.43;nan
22311;BME280;11323;49.610;11.016;2023-02-12T05:19:00;100148.38;;;10.50;nan
22311;BME280;11323;49.610;11.016;2023-02-12T05:24:01;100140.56;;;10.50;nan
22311;BME280;11323;49.610;11.016;2023-02-12T05:29:02;100143.09;;;10.52;nan
22311;BME280;11323;49.610;11.016;2023-02-12T05:34:02;100133.31;;;10.41;nan
22311;BME280;11323;49.610;11.016;2023-02-12T05:39:05;100143.56;;;10.44;nan
22311;BME280;11323;49.610;11.016;2023-02-12T05:44:06;100146.16;;;10.44;nan
22311;BME280;11323;49.610;11.016;2023-02-12T05:49:08;100155.66;;;10.45;nan
22311;BME280;11323;49.610;11.016;2023-02-12T05:54:09;100163.28;;;10.48;nan
22311;BME280;11323;49.610;11.016;2023-02-12T05:59:19;100162.56;;;10.46;nan
22311;BME280;11323;49.610;11.016;2023-02-12T06:04:23;100162.56;;;10.46;nan
22311;BME280;11323;49.610;11.016;2023-02-12T06:09:24;100154.34;;;10.38;nan
22311;BME280;11323;49.610;11.016;2023-02-12T06:14:25;100165.50;;;10.40;nan
22311;BME280;11323;49.610;11.016;2023-02-12T06:19:25;100153.41;;;10.39;nan
22311;BME280;11323;49.610;11.016;2023-02-12T06:24:25;100164.41;;;10.44;nan
22311;BME280;11323;49.610;11.016;2023-02-12T06:29:26;100171.31;;;10.45;nan
22311;BME280;11323;49.610;11.016;2023-02-12T06:34:26;100173.16;;;10.43;nan
22311;BME280;11323;49.610;11.016;2023-02-12T06:39:27;100182.47;;;10.47;nan
22311;BME280;11323;49.610;11.016;2023-02-12T06:44:27;100169.03;;;10.39;nan
22311;BME280;11323;49.610;11.016;2023-02-12T06:49:27;100195.69;;;10.44;nan
22311;BME280;11323;49.610;11.016;2023-02-12T06:54:28;100191.50;;;10.41;nan
22311;BME280;11323;49.610;11.016;2023-02-12T06:59:28;100190.81;;;10.38;nan
22311;BME280;11323;49.610;11.016;2023-02-12T07:04:28;100207.97;;;10.42;nan
22311;BME280;11323;49.610;11.016;2023-02-12T07:09:29;100219.91;;;10.46;nan
22311;BME280;11323;49.610;11.016;2023-02-12T07:14:29;100220.06;;;10.43;nan
22311;BME280;11323;49.610;11.016;2023-02-12T07:19:30;100225.28;;;10.43;nan
22311;BME280;11323;49.610;11.016;2023-02-12T07:24:30;100228.66;;;10.45;nan
22311;BME280;11323;49.610;11.016;2023-02-12T07:29:31;100233.88;;;10.45;nan
22311;BME280;11323;49.610;11.016;2023-02-12T07:34:31;100224.38;;;10.44;nan
22311;BME280;11323;49.610;11.016;2023-02-12T07:39:32;100235.63;;;10.44;nan
22311;BME280;11323;49.610;11.016;2023-02-12T07:44:32;100231.81;;;10.50;nan
22311;BME280;11323;49.610;11.016;2023-02-12T07:49:33;100246.53;;;10.65;nan
22311;BME280;11323;49.610;11.016;2023-02-12T07:54:33;100236.28;;;10.62;nan
22311;BME280;11323;49.610;11.016;2023-02-12T07:59:34;100237.56;;;10.70;nan
22311;BME280;11323;49.610;11.016;2023-02-12T08:04:34;100247.66;;;10.76;nan
22311;BME280;11323;49.610;11.016;2023-02-12T08:09:35;100244.13;;;10.77;nan
22311;BME280;11323;49.610;11.016;2023-02-12T08:14:35;100235.53;;;10.75;nan
22311;BME280;11323;49.610;11.016;2023-02-12T08:19:35;100243.72;;;10.83;nan
22311;BME280;11323;49.610;11.016;2023-02-12T08:24:36;100245.03;;;10.90;nan
22311;BME280;11323;49.610;11.016;2023-02-12T08:29:36;100247.16;;;10.98;nan
22311;BME280;11323;49.610;11.016;2023-02-12T08:34:37;100241.75;;;11.01;nan
22311;BME280;11323;49.610;11.016;2023-02-12T08:39:37;100238.69;;;11.09;nan
22311;BME280;11323;49.610;11.016;2023-02-12T08:44:37;100242.84;;;11.11;nan
22311;BME280;11323;49.610;11.016;2023-02-12T08:49:39;100224.88;;;11.07;nan
22311;BME280;11323;49.610;11.016;2023-02-12T08:54:40;100243.31;;;11.18;nan
22311;BME280;11323;49.610;11.016;2023-02-12T08:59:40;100225.34;;;11.13;nan
22311;BME280;11323;49.610;11.016;2023-02-12T09:04:40;100246.66;;;11.20;nan
22311;BME280;11323;49.610;11.016;2023-02-12T09:09:41;100245.75;;;11.21;nan
22311;BME280;11323;49.610;11.016;2023-02-12T09:14:41;100244.81;;;11.22;nan
22311;BME280;11323;49.610;11.016;2023-02-12T09:19:41;100245.91;;;11.33;nan
22311;BME280;11323;49.610;11.016;2023-02-12T09:24:42;100254.56;;;11.61;nan
22311;BME280;11323;49.610;11.016;2023-02-12T09:29:42;100253.16;;;11.69;nan
22311;BME280;11323;49.610;11.016;2023-02-12T09:34:43;100254.53;;;11.75;nan
22311;BME280;11323;49.610;11.016;2023-02-12T09:39:43;100262.69;;;11.83;nan
22311;BME280;11323;49.610;11.016;2023-02-12T09:44:56;100262.66;;;11.98;nan
22311;BME280;11323;49.610;11.016;2023-02-12T09:50:16;100247.66;;;12.14;nan
22311;BME280;11323;49.610;11.016;2023-02-12T09:55:34;100262.09;;;12.20;nan
22311;BME280;11323;49.610;11.016;2023-02-12T10:00:35;100262.19;;;12.18;nan
22311;BME280;11323;49.610;11.016;2023-02-12T10:05:40;100264.81;;;12.31;nan
22311;BME280;11323;49.610;11.016;2023-02-12T10:16:48;100271.09;;;12.55;nan
22311;BME280;11323;49.610;11.016;2023-02-12T10:27:42;100259.38;;;12.73;nan
22311;BME280;11323;49.610;11.016;2023-02-12T10:32:48;100276.09;;;12.83;nan
22311;BME280;11323;49.610;11.016;2023-02-12T10:37:56;100263.34;;;12.92;nan
22311;BME280;11323;49.610;11.016;2023-02-12T10:42:59;100272.97;;;13.04;nan
22311;BME280;11323;49.610;11.016;2023-02-12T10:48:08;100267.16;;;13.12;nan
22311;BME280;11323;49.610;11.016;2023-02-12T10:53:19;100253.78;;;13.17;nan
22311;BME280;11323;49.610;11.016;2023-02-12T10:58:23;100263.28;;;13.18;nan
22311;BME280;11323;49.610;11.016;2023-02-12T11:03:30;100259.09;;;13.15;nan
22311;BME280;11323;49.610;11.016;2023-02-12T11:08:36;100247.81;;;13.15;nan
22311;BME280;11323;49.610;11.016;2023-02-12T11:19:05;100242.63;;;13.26;nan
22311;BME280;11323;49.610;11.016;2023-02-12T11:29:24;100234.22;;;13.47;nan
22311;BME280;11323;49.610;11.016;2023-02-12T11:34:25;100239.28;;;13.61;nan
22311;BME280;11323;49.610;11.016;2023-02-12T11:39:37;100238.81;;;13.67;nan
22311;BME280;11323;49.610;11.016;2023-02-12T11:44:39;100240.22;;;13.60;nan
22311;BME280;11323;49.610;11.016;2023-02-12T11:50:08;100248.09;;;13.60;nan
22311;BME280;11323;49.610;11.016;2023-02-12T11:55:22;100239.50;;;13.58;nan
22311;BME280;11323;49.610;11.016;2023-02-12T12:00:36;100230.03;;;13.31;nan
22311;BME280;11323;49.610;11.016;2023-02-12T12:05:51;100232.03;;;13.27;nan
22311;BME280;11323;49.610;11.016;2023-02-12T12:10:59;100240.22;;;13.23;nan
22311;BME280;11323;49.610;11.016;2023-02-12T12:16:19;100240.97;;;13.12;nan
22311;BME280;11323;49.610;11.016;2023-02-12T12:21:47;100230.34;;;13.02;nan
22311;BME280;11323;49.610;11.016;2023-02-12T12:27:02;100234.19;;;13.09;nan
22311;BME280;11323;49.610;11.016;2023-02-12T12:32:04;100234.59;;;13.16;nan
22311;BME280;11323;49.610;11.016;2023-02-12T12:37:46;100240.69;;;13.17;nan
22311;BME280;11323;49.610;11.016;2023-02-12T12:42:59;100232.91;;;13.28;nan
22311;BME280;11323;49.610;11.016;2023-02-12T12:48:19;100235.63;;;13.39;nan
22311;BME280;11323;49.610;11.016;2023-02-12T13:04:15;100233.75;;;13.53;nan
22311;BME280;11323;49.610;11.016;2023-02-12T13:09:43;100229.69;;;13.49;nan
22311;BME280;11323;49.610;11.016;2023-02-12T13:15:02;100216.28;;;13.53;nan
22311;BME280;11323;49.610;11.016;2023-02-12T13:20:31;100227.53;;;13.67;nan
22311;BME280;11323;49.610;11.016;2023-02-12T13:30:45;100229.88;;;13.94;nan
22311;BME280;11323;49.610;11.016;2023-02-12T13:35:50;100225.13;;;13.99;nan
22311;BME280;11323;49.610;11.016;2023-02-12T13:40:55;100224.38;;;13.97;nan
22311;BME280;11323;49.610;11.016;2023-02-12T13:56:40;100215.09;;;13.93;nan
22311;BME280;11323;49.610;11.016;2023-02-12T14:01:43;100216.06;;;13.92;nan
22311;BME280;11323;49.610;11.016;2023-02-12T14:11:59;100215.88;;;13.82;nan
22311;BME280;11323;49.610;11.016;2023-02-12T14:27:35;100200.25;;;13.69;nan
22311;BME280;11323;49.610;11.016;2023-02-12T14:37:44;100188.56;;;13.62;nan
22311;BME280;11323;49.610;11.016;2023-02-12T14:42:54;100196.72;;;13.82;nan
22311;BME280;11323;49.610;11.016;2023-02-12T14:47:55;100193.41;;;13.91;nan
22311;BME280;11323;49.610;11.016;2023-02-12T14:53:02;100181.41;;;14.00;nan
22311;BME280;11323;49.610;11.016;2023-02-12T14:58:06;100196.44;;;14.20;nan
22311;BME280;11323;49.610;11.016;2023-02-12T15:03:19;100191.22;;;14.20;nan
22311;BME280;11323;49.610;11.016;2023-02-12T15:08:30;100182.25;;;14.23;nan
22311;BME280;11323;49.610;11.016;2023-02-12T15:13:42;100191.94;;;14.23;nan
22311;BME280;11323;49.610;11.016;2023-02-12T15:18:55;100188.81;;;14.17;nan
22311;BME280;11323;49.610;11.016;2023-02-12T15:29:02;100183.41;;;14.08;nan
22311;BME280;11323;49.610;11.016;2023-02-12T15:34:03;100182.59;;;14.07;nan
22311;BME280;11323;49.610;11.016;2023-02-12T15:39:07;100174.47;;;13.99;nan
22311;BME280;11323;49.610;11.016;2023-02-12T15:44:26;100169.25;;;13.99;nan
22311;BME280;11323;49.610;11.016;2023-02-12T15:49:36;100177.19;;;13.97;nan
22311;BME280;11323;49.610;11.016;2023-02-12T15:54:37;100165.75;;;13.87;nan
22311;BME280;11323;49.610;11.016;2023-02-12T15:59:39;100165.19;;;14.06;nan
22311;BME280;11323;49.610;11.016;2023-02-12T16:04:39;100166.53;;;14.23;nan
22311;BME280;11323;49.610;11.016;2023-02-12T16:09:41;100165.81;;;14.32;nan
22311;BME280;11323;49.610;11.016;2023-02-12T16:14:46;100157.47;;;14.27;nan
22311;BME280;11323;49.610;11.016;2023-02-12T16:19:58;100165.22;;;14.29;nan
22311;BME280;11323;49.610;11.016;2023-02-12T16:25:00;100174.88;;;14.28;nan
22311;BME280;11323;49.610;11.016;2023-02-12T16:30:03;100177.25;;;14.20;nan
22311;BME280;11323;49.610;11.016;2023-02-12T16:50:26;100190.28;;;13.86;nan
22311;BME280;11323;49.610;11.016;2023-02-12T16:55:29;100180.09;;;13.70;nan
22311;BME280;11323;49.610;11.016;2023-02-12T17:00:29;100185.31;;;13.58;nan
22311;BME280;11323;49.610;11.016;2023-02-12T17:05:29;100187.66;;;13.50;nan
22311;BME280;11323;49.610;11.016;2023-02-12T17:10:30;100177.75;;;13.42;nan
22311;BME280;11323;49.610;11.016;2023-02-12T17:15:40;100174.44;;;13.52;nan
22311;BME280;11323;49.610;11.016;2023-02-12T17:20:52;100196.47;;;13.73;nan
22311;BME280;11323;49.610;11.016;2023-02-12T17:25:53;100195.28;;;13.78;nan
22311;BME280;11323;49.610;11.016;2023-02-12T17:30:54;100189.31;;;13.75;nan
22311;BME280;11323;49.610;11.016;2023-02-12T17:35:57;100196.47;;;13.73;nan
22311;BME280;11323;49.610;11.016;2023-02-12T17:40:58;100197.63;;;13.69;nan
22311;BME280;11323;49.610;11.016;2023-02-12T17:45:58;100187.06;;;13.82;nan
22311;BME280;11323;49.610;11.016;2023-02-12T17:50:59;100207.84;;;13.97;nan
22311;BME280;11323;49.610;11.016;2023-02-12T17:55:59;100209.59;;;13.96;nan
22311;BME280;11323;49.610;11.016;2023-02-12T18:01:05;100214.84;;;13.96;nan
22311;BME280;11323;49.610;11.016;2023-02-12T18:06:07;100209.13;;;13.91;nan
22311;BME280;11323;49.610;11.016;2023-02-12T18:11:09;100209.13;;;13.91;nan
22311;BME280;11323;49.610;11.016;2023-02-12T18:16:10;100198.50;;;13.81;nan
22311;BME280;11323;49.610;11.016;2023-02-12T18:21:12;100214.81;;;13.85;nan
22311;BME280;11323;49.610;11.016;2023-02-12T18:26:16;100214.22;;;13.81;nan
22311;BME280;11323;49.610;11.016;2023-02-12T18:31:17;100213.41;;;13.81;nan
22311;BME280;11323;49.610;11.016;2023-02-12T18:36:20;100196.38;;;13.86;nan
22311;BME280;11323;49.610;11.016;2023-02-12T18:41:23;100181.47;;;13.87;nan
22311;BME280;11323;49.610;11.016;2023-02-12T18:46:26;100192.94;;;13.97;nan
22311;BME280;11323;49.610;11.016;2023-02-12T18:51:28;100191.53;;;14.04;nan
22311;BME280;11323;49.610;11.016;2023-02-12T18:56:33;100192.72;;;14.00;nan
22311;BME280;11323;49.610;11.016;2023-02-12T19:01:34;100193.66;;;13.99;nan
22311;BME280;11323;49.610;11.016;2023-02-12T19:06:43;100184.59;;;13.92;nan
22311;BME280;11323;49.610;11.016;2023-02-12T19:11:46;100191.00;;;13.88;nan
22311;BME280;11323;49.610;11.016;2023-02-12T19:16:47;100198.41;;;13.83;nan
22311;BME280;11323;49.610;11.016;2023-02-12T19:21:47;100186.69;;;13.75;nan
22311;BME280;11323;49.610;11.016;2023-02-12T19:26:51;100182.38;;;13.74;nan
22311;BME280;11323;49.610;11.016;2023-02-12T19:31:52;100184.06;;;13.75;nan
22311;BME280;11323;49.610;11.016;2023-02-12T19:36:53;100190.53;;;13.83;nan
22311;BME280;11323;49.610;11.016;2023-02-12T19:41:53;100191.47;;;13.82;nan
22311;BME280;11323;49.610;11.016;2023-02-12T19:46:55;100203.72;;;13.81;nan
22311;BME280;11323;49.610;11.016;2023-02-12T19:51:56;100211.50;;;13.83;nan
22311;BME280;11323;49.610;11.016;2023-02-12T19:56:57;100197.28;;;13.74;nan
22311;BME280;11323;49.610;11.016;2023-02-12T20:01:57;100194.78;;;13.72;nan
22311;BME280;11323;49.610;11.016;2023-02-12T20:06:58;100210.03;;;13.79;nan
22311;BME280;11323;49.610;11.016;2023-02-12T20:11:58;100204.81;;;13.79;nan
22311;BME280;11323;49.610;11.016;2023-02-12T20:16:59;100208.59;;;13.74;nan
22311;BME280;11323;49.610;11.016;2023-02-12T20:22:00;100208.16;;;13.81;nan
22311;BME280;11323;49.610;11.016;2023-02-12T20:27:02;100210.31;;;13.87;nan
22311;BME280;11323;49.610;11.016;2023-02-12T20:32:02;100200.75;;;13.86;nan
22311;BME280;11323;49.610;11.016;2023-02-12T20:37:04;100214.97;;;13.95;nan
22311;BME280;11323;49.610;11.016;2023-02-12T20:42:05;100218.31;;;13.97;nan
22311;BME280;11323;49.610;11.016;2023-02-12T20:47:05;100222.03;;;13.94;nan
22311;BME280;11323;49.610;11.016;2023-02-12T20:52:06;100219.16;;;13.97;nan
22311;BME280;11323;49.610;11.016;2023-02-12T20:57:06;100225.34;;;13.96;nan
22311;BME280;11323;49.610;11.016;2023-02-12T21:02:08;100225.25;;;13.98;nan
22311;BME280;11323;49.610;11.016;2023-02-12T21:07:08;100218.94;;;14.00;nan
22311;BME280;11323;49.610;11.016;2023-02-12T21:12:09;100224.16;;;14.00;nan
22311;BME280;11323;49.610;11.016;2023-02-12T21:17:09;100225.38;;;14.08;nan
22311;BME280;11323;49.610;11.016;2023-02-12T21:22:09;100225.50;;;13.70;nan
22311;BME280;11323;49.610;11.016;2023-02-12T21:27:10;100219.22;;;13.49;nan
22311;BME280;11323;49.610;11.016;2023-02-12T21:32:10;100216.13;;;13.31;nan
22311;BME280;11323;49.610;11.016;2023-02-12T21:37:11;100223.38;;;13.27;nan
22311;BME280;11323;49.610;11.016;2023-02-12T21:42:11;100240.22;;;13.23;nan
22311;BME280;11323;49.610;11.016;2023-02-12T21:47:12;100232.09;;;13.15;nan
22311;BME280;11323;49.610;11.016;2023-02-12T21:52:12;100232.13;;;13.02;nan
22311;BME280;11323;49.610;11.016;2023-02-12T21:57:12;100217.69;;;12.96;nan
22311;BME280;11323;49.610;11.016;2023-02-12T22:02:21;100230.16;;;12.92;nan
22311;BME280;11323;49.610;11.016;2023-02-12T22:07:21;100227.13;;;12.86;nan
22311;BME280;11323;49.610;11.016;2023-02-12T22:12:22;100221.81;;;12.74;nan
22311;BME280;11323;49.610;11.016;2023-02-12T22:17:22;100230.38;;;12.76;nan
22311;BME280;11323;49.610;11.016;2023-02-12T22:22:22;100231.53;;;12.72;nan
22311;BME280;11323;49.610;11.016;2023-02-12T22:27:23;100214.72;;;12.63;nan
22311;BME280;11323;49.610;11.016;2023-02-12T22:32:24;100223.19;;;12.67;nan
22311;BME280;11323;49.610;11.016;2023-02-12T22:37:24;100218.38;;;12.61;nan
22311;BME280;11323;49.610;11.016;2023-02-12T22:42:25;100217.75;;;12.57;nan
22311;BME280;11323;49.610;11.016;2023-02-12T22:47:25;100217.97;;;12.54;nan
22311;BME280;11323;49.610;11.016;2023-02-12T22:52:30;100225.09;;;12.52;nan
22311;BME280;11323;49.610;11.016;2023-02-12T22:57:30;100222.66;;;12.49;nan
22311;BME280;11323;49.610;11.016;2023-02-12T23:02:31;100228.22;;;12.44;nan
22311;BME280;11323;49.610;11.016;2023-02-12T23:07:32;100227.41;;;12.44;nan
22311;BME280;11323;49.610;11.016;2023-02-12T23:12:32;100227.59;;;12.41;nan
22311;BME280;11323;49.610;11.016;2023-02-12T23:17:32;100213.56;;;12.29;nan
22311;BME280;11323;49.610;11.016;2023-02-12T23:22:33;100219.44;;;12.32;nan
22311;BME280;11323;49.610;11.016;2023-02-12T23:27:34;100227.56;;;12.28;nan
22311;BME280;11323;49.610;11.016;2023-02-12T23:32:34;100218.28;;;12.24;nan
22311;BME280;11323;49.610;11.016;2023-02-12T23:37:35;100205.28;;;12.22;nan
22311;BME280;11323;49.610;11.016;2023-02-12T23:42:35;100200.59;;;12.14;nan
22311;BME280;11323;49.610;11.016;2023-02-12T23:47:35;100198.94;;;12.13;nan
22311;BME280;11323;49.610;11.016;2023-02-12T23:52:36;100189.72;;;12.08;nan
22311;BME280;11323;49.610;11.016;2023-02-12T23:57:36;100187.19;;;12.06;nan
